Ride Results

Homewood Memorial Carnival (03-04-2015)
Ride distance: 80.0 km

Outcomes - Homewood Memorial Carnival (03-04-2015)
Division No. of Entries Retired / DNE Completed Withdrawn Ineligible V/O Percentage Completed
HW 11 - 10 1 - - 90.91%
MW 22 - 17 3 - 2 77.27%
LW 9 - 5 2 - 2 55.56%
JN 1 - 1 - - - 100.00%
Totals 43 - 33 6 - 4 76.74%
Results - Homewood Memorial Carnival (03-04-2015)
No. Rider Horse Place Time Leg Speeds Total
Km/Hr
H/R bpm
Heavyweight
7 Con Bouzianis Conderosa Rassim 1 (BC) 6:50:00 12.3, 11.1 11.71 32, 40, 41 (Avg:40)
67 Ron Haigh Bacchante Dreamworks 2 6:57:00 11.2, 11.7 11.51 36, 39, 40 (Avg:39)
22 Steve Brooks A'landell Pirate 3 7:09:00 11.1, 11.2 11.19 37, 42, 43 (Avg:42)
9 Jack Johnson Sharahd Namaree 4 7:46:00 10.6, 9.9 10.30 44, 46, 47 (Avg:46)
25 Sue Warren Razorback Flash 5 8:01:00 10.6, 9.4 9.98 42, 44, 52 (Avg:48)
48 Anthony Parker Coolahlee Park Samba 6 8:12:00 10.4, 9.1 9.76 35, 46, 48 (Avg:47)
33 Monique Echentille Follydown Kadin 7 8:27:00 10.0, 8.9 9.47 36, 43, 47 (Avg:45)
57 Marty Gregson Burren-dah Gladiator 8 9:18:00 8.7, 8.4 8.60 40, 36, 45 (Avg:40)
68 Ian Dreghorn Ausden Nile Prins 9 10:10:00 10.3, 6.3 7.87 38, 48, 40 (Avg:44)
47 Scott Peters Stoodleigh Colonial Boy 10 10:14:00 8.7, 7.0 7.82 33, 48, 44 (Avg:46)
8 Len Derkacz Salam Zahbeel Withdrawn L1 0:00:00 - - 38, 44 (Avg:44)
Middleweight
5 Debbie Pevy Halimas Esdikarn 1 (BC) 5:35:00 13.6, 15.0 14.33 34, 37, 40 (Avg:38)
23 Anne Hills Inshallah Echo's Flight 2 6:14:00 14.8, 11.3 12.83 39, 40, 42 (Avg:41)
27 Corey Nix Razorback Blue Rhapsody 3 6:56:00 11.9, 11.1 11.54 32, 45, 47 (Avg:46)
71 Sharon Foster Sharabel Maleka 4 7:34:00 11.2, 9.9 10.57 36, 45, 49 (Avg:47)
45 Alex Baczocha Ralvon Secret 5 7:45:00 10.9, 9.7 10.32 33, 37, 41 (Avg:39)
11 Allana Rempel Ralvon Milarna 5 7:45:00 10.9, 9.7 10.32 35, 43, 43 (Avg:43)
43 Jennifer Annetts Castlebar Citation 7 8:01:00 10.6, 9.4 9.98 35, 37, 41 (Avg:39)
42 Kyia-Jane Bodsworth Churinga Simfire 7 8:01:00 10.6, 9.4 9.98 44, 53, 52 (Avg:52)
3 Carol Major Bradali Najmul Fi Samar 7 8:01:00 11.2, 8.9 9.98 30, 39, 51 (Avg:45)
26 Tayla Warren Warren Park O.B. One 7 8:01:00 10.6, 9.4 9.98 31, 45, 53 (Avg:49)
49 Jennifer Gilbertson Webbs Creek Cattle Baron 11 8:11:00 10.5, 9.1 9.78 37, 46, 50 (Avg:48)
29 Bill Ward Lukima 11 8:11:00 11.2, 8.6 9.78 31, 48, 46 (Avg:47)
30 Ashley Thomas Ben Mariah 13 8:14:00 9.1, 10.3 9.72 32, 42, 46 (Avg:44)
32 Melanie Anderson Ausden Kon Tiki 14 8:57:00 10.0, 8.0 8.94 36, 45, 48 (Avg:46)
51 Ruth Van der Wegen Aloha Ameer 15 9:39:00 9.1, 7.5 8.29 28, 41, 36 (Avg:38)
46 Christopher Clarke Hopetoun Belle 16 10:14:00 8.7, 7.0 7.82 48, 41, 41 (Avg:41)
14 Katrina Bodewes Booramby Silver Elk 17 10:31:00 8.2, 7.0 7.61 36, 52, 40 (Avg:46)
28 Angela Ward Al Wathba Ellie May Lame L2 0:00:00 11.2, 11.5 - 36, 44, 55 (Avg:49)
39 Allison Knihinicki Come Fly with Me Heart Rate L1 0:00:00 9.1 - 38, 58 (Avg:58)
40 Elsie Newsome Mimosa Ellira Withdrawn L1 0:00:00 - - 31, 39 (Avg:39)
35 Sonya Ruprecht Alex-Ville God Be Gift Withdrawn L1 0:00:00 - - 28, 41 (Avg:41)
44 Tracey Hutchinson Cherox Kenya Withdrawn P/R 0:00:00 - - 38
Lightweight
66 Clare Fleming Picnic Park Desert Dancer 1 (BC) 5:49:00 14.8, 12.8 13.75 35, 46, 53 (Avg:49)
24 Xanthe Webb Bahrein Zambique 2 6:14:00 14.8, 11.3 12.83 41, 42, 46 (Avg:44)
4 Sue Todd Shakista 3 8:01:00 11.2, 8.9 9.98 39, 42, 48 (Avg:45)
65 Shannon Hill Burren-dah Narla 4 9:18:00 8.7, 8.4 8.60 32, 46, 44 (Avg:45)
10 Jade Hodson Rush Creek Gift 5 10:31:00 8.2, 7.0 7.61 42, 53, 58 (Avg:55)
15 Mia Bodewes Booramby Jacob Lame L2 0:00:00 8.2, 7.0 - 33, 45, 40 (Avg:42)
1 Pamela Karner Garonne Park Diva Lame L2 0:00:00 11.2, 9.9 - 39, 42, 49 (Avg:45)
20 Julie Brooks Aloha Byshara Withdrawn L1 0:00:00 - - 34, 44 (Avg:44)
16 Jan Wade Hillville Amigo Withdrawn P/R 0:00:00 - - 34
Junior
6 Tomeika Bond-Pevy Regal Buddie 1 (BC) 8:01:00 10.5, 9.4 9.98 40, 44, 48 (Avg:46)